New Harbor, ME

43° 52' 34"N, 69° 29' 40"W, Elevation 65 ft.
Eastern Time

Hourly observations for the last 72 hours

Date Time Temperature (°F) Humi-
dity

(%)
Wind
(mph)
Pressure Rain (in) Sun
(W/m2)
ET
(in)
Air Dew 6 Hour 1 Hr 3 Hr 6 Hr Day
Alt
(in)
Sea
Level

(mb)
Max Min
21 17:00 33.9 30.2 86 Calm 30.03 1017.0 0.00 0 0.028
21 16:00 39.6 32.7 76 N 1 G 3 30.02 1016.6 0.00 7 0.027
21 15:00 43.8 34.3 69 NW 4 G 12 30.01 1016.2 0.00 53 0.025
21 14:00 45.0 35.1 68 NW 6 G 10 30.01 1016.2 0.00 97 0.022
21 13:00 45.0 34.7 45.8 31.1 67 N 5 G 15 30.01 1016.2 0.00 211 0.017
21 12:00 44.2 35.0 70 N 6 G 18 30.02 1016.8 0.00 239 0.010
21 11:00 43.1 34.3 71 N 5 G 13 30.04 1017.3 0.00 406 0.003
21 10:00 38.5 31.9 77 NNE 5 G 10 30.07 1018.2 0.00 44 0.002
21 09:00 35.3 30.4 82 NNE 3 G 9 30.07 1018.2 0.00 35 0.001
21 08:00 32.5 28.2 84 N 3 G 8 30.07 1018.2 0.00 26 0.001
21 07:00 31.2 26.3 33.8 31.2 82 N 1 G 7 30.07 1018.2 0.00 9 0.001
21 06:00 32.3 26.8 80 NNW 3 G 11 30.04 1017.2 0.00 0 0.000
21 05:00 32.1 29.0 88 N 4 G 9 30.01 1016.5 0.00 0 0.000
21 04:00 32.2 30.1 92 NW 5 G 10 29.99 1015.6 0.00 0 0.000
21 03:00 32.6 30.8 93 N 2 G 4 29.99 1015.5 0.00 0 0.000
21 02:00 33.2 31.4 93 N 1 G 5 29.98 1015.4 0.00 0 0.000
21 01:00 33.8 32.0 35.7 33.3 93 NW 3 G 6 29.98 1015.1 0.01 0.04 0.00 0 0.000
21 00:00 33.4 31.6 93 NNW 1 G 3 29.97 1014.9 0.07 0 0.011
20 23:00 33.3 31.5 93 N 2 G 8 29.96 1014.7 0.01 0.07 0 0.011
20 22:00 34.1 32.3 93 NE 5 G 11 29.95 1014.1 0.03 0.06 0 0.011
20 21:00 34.8 33.0 93 NE 3 G 7 29.94 1013.8 0.02 0.06 0 0.011
20 20:00 35.2 33.1 92 NNE 3 G 10 29.93 1013.5 0.01 0.04 0 0.011
20 19:00 35.7 33.6 37.3 35.4 92 NNE 3 G 9 29.91 1012.9 0.01 0.03 0.03 0.03 0 0.011
20 18:00 35.5 33.1 91 NNW 1 G 7 29.90 1012.6 0.02 0.02 0 0.011
20 17:00 36.1 33.5 90 N 5 G 11 29.89 1012.3 0.00 0 0.011
20 16:00 36.6 33.4 88 NNW 4 G 12 29.87 1011.6 0.00 0 0.011
20 15:00 36.8 33.6 88 N 3 G 9 29.87 1011.6 0.00 14 0.010
20 14:00 37.1 33.6 87 N 2 G 9 29.87 1011.5 0.00 28 0.009
20 13:00 37.3 33.8 37.6 33.4 87 NNE 4 G 12 29.87 1011.5 0.00 47 0.007
20 12:00 37.0 33.5 87 N 4 G 11 29.86 1011.3 0.00 91 0.005
20 11:00 37.1 34.2 89 NNE 2 G 6 29.87 1011.5 0.00 91 0.003
20 10:00 35.9 33.3 90 NE 6 G 10 29.88 1011.7 0.00 118 0.001
20 09:00 34.2 32.1 92 NE 5 G 11 29.87 1011.6 0.00 70 0.000
20 08:00 33.5 31.7 93 NE 4 G 9 29.87 1011.6 0.00 30 0.000
20 07:00 33.5 31.7 33.9 33.0 93 NNE 3 G 10 29.88 1011.7 0.00 0 0.000
20 06:00 33.7 31.9 93 NNE 1 G 7 29.87 1011.6 0.00 0 0.000
20 05:00 33.6 32.1 94 NE 7 G 12 29.87 1011.7 0.00 0 0.000
20 04:00 33.6 32.3 95 NNE 3 G 9 29.84 1010.6 0.00 0 0.000
20 03:00 33.5 32.0 94 NE 3 G 11 29.84 1010.5 0.00 0 0.000
20 02:00 33.1 31.6 94 NE 4 G 6 29.85 1010.8 0.00 0 0.000
20 01:00 33.9 32.4 36.4 33.7 94 NE 3 G 8 29.84 1010.4 0.00 0 0.000
20 00:00 34.2 32.7 94 NE 5 G 10 29.84 1010.5 0.05 0 0.011
19 23:00 33.9 32.4 94 NNE 0 G 3 29.86 1011.3 0.05 0 0.011
19 22:00 34.1 32.6 94 Calm 29.85 1011.0 0.05 0 0.011
19 21:00 35.5 33.9 94 NW 4 G 9 29.85 1010.7 0.05 0 0.011
19 20:00 36.1 34.5 94 NNW 1 G 3 29.85 1011.0 0.05 0 0.011
19 19:00 36.4 34.8 38.7 36.4 94 NE 0 G 2 29.84 1010.6 0.01 0.03 0.05 0 0.011
19 18:00 36.7 35.1 94 Calm 29.82 1009.9 0.01 0.05 0 0.011
19 17:00 37.1 35.5 94 Calm 29.80 1009.1 0.04 0 0.011
19 16:00 37.6 36.0 94 NE 0 G 3 29.77 1008.3 0.02 0.04 0 0.011
19 15:00 38.4 36.8 94 Calm 29.75 1007.6 0.04 42 0.010
19 14:00 38.0 36.4 94 ENE 1 G 4 29.75 1007.4 0.02 0.04 56 0.009
19 13:00 38.2 36.6 38.4 33.8 94 NW 0 G 3 29.73 1006.7 0.02 0.02 0.02 0.02 91 0.008
19 12:00 38.1 36.3 93 N 2 G 4 29.70 1005.9 0.00 90 0.006
19 11:00 38.0 36.4 94 NW 2 G 5 29.71 1006.1 0.00 77 0.004
19 10:00 37.2 35.6 94 W 2 G 4 29.73 1006.6 0.00 120 0.002
19 09:00 36.2 34.6 94 WNW 1 G 3 29.73 1006.7 0.00 81 0.001
19 08:00 34.9 33.4 94 WNW 1 G 2 29.73 1006.9 0.00 40 0.000
19 07:00 33.9 32.4 34.5 33.8 94 NNW 0 G 2 29.70 1005.9 0.00 18 0.000
19 06:00 34.0 32.5 94 NNW 1 G 3 29.69 1005.3 0.00 0 0.000
19 05:00 34.3 32.8 94 NNW 0 G 3 29.67 1004.6 0.00 0 0.000
19 04:00 34.4 32.9 94 N 1 G 10 29.65 1003.9 0.00 0 0.000
19 03:00 34.4 32.9 94 N 2 G 9 29.63 1003.4 0.00 0 0.000
19 02:00 34.1 32.6 94 NNE 4 G 11 29.61 1002.9 0.00 0 0.000
19 01:00 33.9 32.4 35.3 33.7 94 N 3 G 10 29.60 1002.5 0.01 0.04 0.00 0 0.000
19 00:00 33.7 32.2 94 N 5 G 11 29.60 1002.6 0.01 0.37 0 0.018
18 23:00 34.0 32.2 93 NW 5 G 12 29.62 1003.2 0.36 0 0.018
18 22:00 34.3 32.5 93 NNE 5 G 12 29.63 1003.3 0.03 0.36 0 0.018
18 21:00 35.1 33.3 93 N 6 G 13 29.62 1003.1 0.01 0.36 0 0.018
18 20:00 35.0 33.2 93 N 5 G 13 29.66 1004.3 0.02 0.35 0 0.018
18 19:00 35.2 33.4 35.4 34.4 93 NNE 6 G 12 29.67 1004.7 0.04 0.12 0.32 0.33 0 0.018
18 18:00 35.3 33.5 93 N 7 G 15 29.68 1005.0 0.05 0.29 0 0.018

Data generated by WxSolution Version 1.9.1.5, Build 2018.05.20.